This is the latest recevied weather packets stored in our database for station/object IW1QQG-13. If no packets are shown the sender has not sent any weather packets the latest 10 day(s).
| Time | Temp. | Humidity | Pressure | Rain* | Wind** | Luminosity | Snow |
|---|---|---|---|---|---|---|---|
| 1777440618 | 16.11° C | 64% | 1014.6 hPa | 0 mm | - | 72 W/m² | - |
| 1777440018 | 15° C | 63% | 1014.6 hPa | 0 mm | - | 38 W/m² | - |
| 1777439418 | 13.89° C | 69% | 1014.6 hPa | 0 mm | - | 30 W/m² | - |
| 1777438818 | 14.44° C | 65% | 1014.6 hPa | 0 mm | - | 23 W/m² | - |
| 1777438218 | 14.44° C | 63% | 1014.6 hPa | 0 mm | - | 17 W/m² | - |
| 1777437617 | 13.33° C | 67% | 1014.6 hPa | 0 mm | - | 11 W/m² | - |
| 1777437017 | 13.89° C | 64% | 1014.6 hPa | 0 mm | - | 6 W/m² | - |
| 1777436418 | 14.44° C | 62% | 1014.6 hPa | 0 mm | - | 2 W/m² | - |
| 1777435817 | 13.89° C | 63% | 1014.6 hPa | 0 mm | - | 0 W/m² | - |
| 1777435218 | 13.33° C | 65% | 1014.6 hPa | 0 mm | - | 0 W/m² | - |
| 1777434617 | 13.33° C | 64% | 1014.6 hPa | 0 mm | - | 0 W/m² | - |
| 1777434017 | 13.33° C | 67% | 1014.6 hPa | 0 mm | - | 0 W/m² | - |
| 1777433417 | 13.89° C | 63% | 1014.6 hPa | 0 mm | - | 0 W/m² | - |
| 1777432817 | 13.89° C | 64% | 1014.6 hPa | 0 mm | - | 0 W/m² | - |
| 1777432217 | 13.33° C | 66% | 1014.9 hPa | 0 mm | - | 0 W/m² | - |
| 1777431618 | 13.89° C | 67% | 1014.9 hPa | 0 mm | - | 0 W/m² | - |
| 1777431017 | 13.89° C | 67% | 1014.9 hPa | 0 mm | - | 0 W/m² | - |
| 1777430417 | 13.89° C | 66% | 1014.9 hPa | 0 mm | - | 0 W/m² | - |
| 1777429817 | 13.33° C | 70% | 1014.9 hPa | 0 mm | - | 0 W/m² | - |
| 1777429227 | 13.89° C | 68% | 1014.9 hPa | 0 mm | - | 0 W/m² | - |
| 1777428027 | 12.78° C | 68% | 1014.9 hPa | 0 mm | - | 0 W/m² | - |
| 1777426817 | 13.33° C | 65% | 1014.9 hPa | 0 mm | - | 0 W/m² | - |
| 1777426218 | 13.33° C | 66% | 1014.9 hPa | 0 mm | - | 0 W/m² | - |
| 1777425617 | 13.33° C | 65% | 1014.9 hPa | 0 mm | - | 0 W/m² | - |
| 1777425027 | 13.89° C | 65% | 1014.9 hPa | 0 mm | - | 0 W/m² | - |
* Rain latest hour (hover to see other rain measurements)
** Current wind speed in m/s (hover to see current wind gust speed)